地図

経路データ

SID SEASON NUMBER BASIN SUBBASIN NAME ISO_TIME NATURE LAT LON WMO_WIND WMO_PRES WMO_AGENCY TRACK_TYPE DIST2LAND LANDFALL IFLAG USA_AGENCY USA_ATCF_ID USA_LAT USA_LON USA_RECORD USA_STATUS USA_WIND USA_PRES USA_SSHS USA_R34_NE USA_R34_SE USA_R34_SW USA_R34_NW USA_R50_NE USA_R50_SE USA_R50_SW USA_R50_NW USA_R64_NE USA_R64_SE USA_R64_SW USA_R64_NW USA_POCI USA_ROCI USA_RMW USA_EYE TOKYO_LAT TOKYO_LON TOKYO_GRADE TOKYO_WIND TOKYO_PRES TOKYO_R50_DIR TOKYO_R50_LONG TOKYO_R50_SHORT TOKYO_R30_DIR TOKYO_R30_LONG TOKYO_R30_SHORT TOKYO_LAND CMA_LAT CMA_LON CMA_CAT CMA_WIND CMA_PRES HKO_LAT HKO_LON HKO_CAT HKO_WIND HKO_PRES NEWDELHI_LAT NEWDELHI_LON NEWDELHI_GRADE NEWDELHI_WIND NEWDELHI_PRES NEWDELHI_CI NEWDELHI_DP NEWDELHI_POCI REUNION_LAT REUNION_LON REUNION_TYPE REUNION_WIND REUNION_PRES REUNION_TNUM REUNION_CI REUNION_RMW REUNION_R34_NE REUNION_R34_SE REUNION_R34_SW REUNION_R34_NW REUNION_R50_NE REUNION_R50_SE REUNION_R50_SW REUNION_R50_NW REUNION_R64_NE REUNION_R64_SE REUNION_R64_SW REUNION_R64_NW BOM_LAT BOM_LON BOM_TYPE BOM_WIND BOM_PRES BOM_TNUM BOM_CI BOM_RMW BOM_R34_NE BOM_R34_SE BOM_R34_SW BOM_R34_NW BOM_R50_NE BOM_R50_SE BOM_R50_SW BOM_R50_NW BOM_R64_NE BOM_R64_SE BOM_R64_SW BOM_R64_NW BOM_ROCI BOM_POCI BOM_EYE BOM_POS_METHOD BOM_PRES_METHOD NADI_LAT NADI_LON NADI_CAT NADI_WIND NADI_PRES WELLINGTON_LAT WELLINGTON_LON WELLINGTON_WIND WELLINGTON_PRES DS824_LAT DS824_LON DS824_STAGE DS824_WIND DS824_PRES TD9636_LAT TD9636_LON TD9636_STAGE TD9636_WIND TD9636_PRES TD9635_LAT TD9635_LON TD9635_WIND TD9635_PRES TD9635_ROCI NEUMANN_LAT NEUMANN_LON NEUMANN_CLASS NEUMANN_WIND NEUMANN_PRES MLC_LAT MLC_LON MLC_CLASS MLC_WIND MLC_PRES USA_GUST BOM_GUST BOM_GUST_PER REUNION_GUST REUNION_GUST_PER USA_SEAHGT USA_SEARAD_NE USA_SEARAD_SE USA_SEARAD_SW USA_SEARAD_NW STORM_SPEED STORM_DIR
1944075S13185 1944 21 SP MM NOT_NAMED 1944-03-15 00:00:00 NR -12.7000 185.100 main 244 244 __________O___ -1 -12.7000 -174.900 2 6 247
1944075S13185 1944 21 SP MM NOT_NAMED 1944-03-15 03:00:00 NR -12.8081 184.833 main 271 271 __________P___ -1 -12.8081 -175.167 2 6 248
1944075S13185 1944 21 SP MM NOT_NAMED 1944-03-15 06:00:00 NR -12.9128 184.573 main 289 289 __________P___ -1 -12.9128 -175.427 2 5 248
1944075S13185 1944 21 SP MM NOT_NAMED 1944-03-15 09:00:00 NR -13.0111 184.326 main 319 319 __________P___ -1 -13.0111 -175.674 2 5 248
1944075S13185 1944 21 SP MM NOT_NAMED 1944-03-15 12:00:00 NR -13.1000 184.100 main 338 338 __________O___ -1 -13.1000 -175.900 2 5 248
1944075S13185 1944 21 SP MM NOT_NAMED 1944-03-15 15:00:00 NR -13.1779 183.898 main 358 358 __________P___ -1 -13.1779 -176.102 2 4 249
1944075S13185 1944 21 SP MM NOT_NAMED 1944-03-15 18:00:00 NR -13.2497 183.707 main 380 379 __________P___ -1 -13.2497 -176.293 2 4 249
1944075S13185 1944 21 SP MM NOT_NAMED 1944-03-15 21:00:00 NR -13.3217 183.513 main 401 401 __________P___ -1 -13.3217 -176.487 2 4 249
1944075S13185 1944 21 SP MM NOT_NAMED 1944-03-16 00:00:00 NR -13.4000 183.300 main 422 422 __________O___ -1 -13.4000 -176.700 2 5 250
1944075S13185 1944 21 SP MM NOT_NAMED 1944-03-16 03:00:00 NR -13.4888 183.038 main 449 426 __________P___ -1 -13.4888 -176.962 2 6 251
1944075S13185 1944 21 SP MM NOT_NAMED 1944-03-16 06:00:00 NR -13.5851 182.757 main 426 395 __________P___ -1 -13.5851 -177.243 2 6 250
1944075S13185 1944 21 SP MM NOT_NAMED 1944-03-16 09:00:00 NR -13.6888 182.473 main 395 365 __________P___ -1 -13.6888 -177.527 2 6 248
1944075S13185 1944 21 SP MM NOT_NAMED 1944-03-16 12:00:00 NR -13.8000 182.200 main 365 342 __________O___ -1 -13.8000 -177.800 2 6 245
1944075S13185 1944 21 SP MM NOT_NAMED 1944-03-16 15:00:00 NR -13.9218 181.957 main 342 313 __________P___ -1 -13.9218 -178.043 2 5 241
1944075S13185 1944 21 SP MM NOT_NAMED 1944-03-16 18:00:00 NR -14.0499 181.727 main 313 282 __________P___ -1 -14.0499 -178.273 2 5 239
1944075S13185 1944 21 SP MM NOT_NAMED 1944-03-16 21:00:00 NR -14.1780 181.510 main 282 260 __________P___ -1 -14.1780 -178.490 2 5 239
1944075S13185 1944 21 SP MM NOT_NAMED 1944-03-17 00:00:00 NR -14.3000 181.300 main 260 239 __________O___ -1 -14.3000 -178.700 2 5 241
1944075S13185 1944 21 SP MM NOT_NAMED 1944-03-17 03:00:00 NR -14.3989 181.105 main 239 218 __________P___ -1 -14.3989 -178.895 2 4 243
1944075S13185 1944 21 SP MM NOT_NAMED 1944-03-17 06:00:00 NR -14.4923 180.915 main 218 198 __________P___ -1 -14.4923 -179.085 2 4 243
1944075S13185 1944 21 SP MM NOT_NAMED 1944-03-17 09:00:00 NR -14.5895 180.717 main 198 179 __________P___ -1 -14.5895 -179.283 2 5 243
1944075S13185 1944 21 SP MM NOT_NAMED 1944-03-17 12:00:00 NR -14.7000 180.500 main 179 162 __________O___ -1 -14.7000 -179.500 2 5 242
1944075S13185 1944 21 SP MM NOT_NAMED 1944-03-17 15:00:00 NR -14.8315 180.251 main 162 134 __________P___ -1 -14.8315 -179.749 2 6 241
1944075S13185 1944 21 SP MM NOT_NAMED 1944-03-17 18:00:00 NR -14.9775 179.980 main 134 123 __________P___ -1 -14.9775 179.980 2 6 241
1944075S13185 1944 21 SP MM NOT_NAMED 1944-03-17 21:00:00 NR -15.1346 179.694 main 123 105 __________P___ -1 -15.1346 179.694 2 6 240
1944075S13185 1944 21 SP MM NOT_NAMED 1944-03-18 00:00:00 NR -15.3000 179.400 main 109 99 __________O___ -1 -15.3000 179.400 2 7 239
1944075S13185 1944 21 SP MM NOT_NAMED 1944-03-18 03:00:00 NR -15.4759 179.099 main 99 94 __________P___ -1 -15.4759 179.099 2 7 239
1944075S13185 1944 21 SP MM NOT_NAMED 1944-03-18 06:00:00 NR -15.6575 178.793 main 92 89 __________P___ -1 -15.6575 178.793 2 7 239
1944075S13185 1944 21 SP MM NOT_NAMED 1944-03-18 09:00:00 NR -15.8353 178.490 main 94 81 __________P___ -1 -15.8353 178.490 2 7 239
1944075S13185 1944 21 SP MM NOT_NAMED 1944-03-18 12:00:00 NR -16.0000 178.200 main 84 79 __________O___ -1 -16.0000 178.200 2 6 241
1944075S13185 1944 21 SP MM NOT_NAMED 1944-03-18 15:00:00 NR -16.1311 177.927 main 92 85 __________P___ -1 -16.1311 177.927 2 6 244
1944075S13185 1944 21 SP MM NOT_NAMED 1944-03-18 18:00:00 NR -16.2499 177.670 main 102 96 __________P___ -1 -16.2499 177.670 2 5 244
1944075S13185 1944 21 SP MM NOT_NAMED 1944-03-18 21:00:00 NR -16.3687 177.427 main 121 113 __________P___ -1 -16.3687 177.427 2 5 241
1944075S13185 1944 21 SP MM NOT_NAMED 1944-03-19 00:00:00 NR -16.5000 177.200 main 116 104 __________O___ -1 -16.5000 177.200 2 5 235
1944075S13185 1944 21 SP MM NOT_NAMED 1944-03-19 03:00:00 NR -16.6686 176.982 main 104 101 __________P___ -1 -16.6686 176.982 2 5 229
1944075S13185 1944 21 SP MM NOT_NAMED 1944-03-19 06:00:00 NR -16.8499 176.778 main 108 100 __________P___ -1 -16.8499 176.778 2 5 226
1944075S13185 1944 21 SP MM NOT_NAMED 1944-03-19 09:00:00 NR -17.0312 176.585 main 108 101 __________P___ -1 -17.0312 176.585 2 5 226
1944075S13185 1944 21 SP MM NOT_NAMED 1944-03-19 12:00:00 NR -17.2000 176.400 main 115 115 __________O___ -1 -17.2000 176.400 2 4 231
1944075S13185 1944 21 SP MM NOT_NAMED 1944-03-19 15:00:00 NR -17.3108 176.230 main 131 125 __________P___ -1 -17.3108 176.230 2 4 237
1944075S13185 1944 21 SP MM NOT_NAMED 1944-03-19 18:00:00 NR -17.4123 176.064 main 134 134 __________P___ -1 -17.4123 176.064 2 4 235
1944075S13185 1944 21 SP MM NOT_NAMED 1944-03-19 21:00:00 NR -17.5326 175.892 main 148 144 __________P___ -1 -17.5326 175.892 2 5 230
1944075S13185 1944 21 SP MM NOT_NAMED 1944-03-20 00:00:00 NR -17.7000 175.700 main 162 162 __________O___ -1 -17.7000 175.700 2 6 224
1944075S13185 1944 21 SP MM NOT_NAMED 1944-03-20 03:00:00 NR -17.9539 175.460 main 179 179 __________P___ -1 -17.9539 175.460 2 7 221
1944075S13185 1944 21 SP MM NOT_NAMED 1944-03-20 06:00:00 NR -18.2552 175.201 main 214 214 __________P___ -1 -18.2552 175.201 2 8 218
1944075S13185 1944 21 SP MM NOT_NAMED 1944-03-20 09:00:00 NR -18.5789 174.941 main 251 251 __________P___ -1 -18.5789 174.941 2 8 216
1944075S13185 1944 21 SP MM NOT_NAMED 1944-03-20 12:00:00 NR -18.9000 174.700 main 282 282 __________O___ -1 -18.9000 174.700 2 7 215
1944075S13185 1944 21 SP MM NOT_NAMED 1944-03-20 15:00:00 NR -19.1331 174.527 main 310 310 __________P___ -1 -19.1331 174.527 2 6 214
1944075S13185 1944 21 SP MM NOT_NAMED 1944-03-20 18:00:00 NR -19.3670 174.370 main 333 333 __________P___ -1 -19.3670 174.370 2 6 211
1944075S13185 1944 21 SP MM NOT_NAMED 1944-03-20 21:00:00 NR -19.6424 174.204 main 362 362 __________P___ -1 -19.6424 174.204 2 7 209
1944075S13185 1944 21 SP MM NOT_NAMED 1944-03-21 00:00:00 NR -20.0000 174.000 main 404 404 __________O___ -1 -20.0000 174.000 2 10 211
1944075S13185 1944 21 SP MM NOT_NAMED 1944-03-21 03:00:00 NR -20.4814 173.659 main 461 461 __________P___ -1 -20.4814 173.659 2 12 213
1944075S13185 1944 21 SP MM NOT_NAMED 1944-03-21 06:00:00 NR -21.0461 173.286 main 528 528 __________P___ -1 -21.0461 173.286 2 14 209
1944075S13185 1944 21 SP MM NOT_NAMED 1944-03-21 09:00:00 NR -21.6626 172.944 main 610 586 __________P___ -1 -21.6626 172.944 2 14 203
1944075S13185 1944 21 SP MM NOT_NAMED 1944-03-21 12:00:00 NR -22.3000 172.700 main 586 575 __________O___ -1 -22.3000 172.700 2 12 197
1944075S13185 1944 21 SP MM NOT_NAMED 1944-03-21 15:00:00 NR -22.8408 172.567 main 577 569 __________P___ -1 -22.8408 172.567 2 11 187
1944075S13185 1944 21 SP MM NOT_NAMED 1944-03-21 18:00:00 NR -23.4063 172.550 main 576 576 __________P___ -1 -23.4063 172.550 2 12 176
1944075S13185 1944 21 SP MM NOT_NAMED 1944-03-21 21:00:00 NR -24.0437 172.657 main 612 612 __________P___ -1 -24.0437 172.657 2 14 167
1944075S13185 1944 21 SP MM NOT_NAMED 1944-03-22 00:00:00 NR -24.8000 172.900 main 662 662 __________O___ -1 -24.8000 172.900 2 18 162
1944075S13185 1944 21 SP MM NOT_NAMED 1944-03-22 03:00:00 NR -25.7533 173.284 main 749 749 __________P___ -1 -25.7533 173.284 2 22 158
1944075S13185 1944 21 SP MM NOT_NAMED 1944-03-22 06:00:00 NR -26.8193 173.802 main 851 748 __________P___ -1 -26.8193 173.802 2 24 155
1944075S13185 1944 21 SP MM NOT_NAMED 1944-03-22 09:00:00 NR -27.9255 174.394 main 748 649 __________P___ -1 -27.9255 174.394 2 24 154
1944075S13185 1944 21 SP MM NOT_NAMED 1944-03-22 12:00:00 NR -29.0000 175.000 main 641 564 __________O___ -1 -29.0000 175.000 2 23 154
1944075S13185 1944 21 SP MM NOT_NAMED 1944-03-22 15:00:00 NR -29.9887 175.567 main 558 494 __________P___ -1 -29.9887 175.567 2 21 153
1944075S13185 1944 21 SP MM NOT_NAMED 1944-03-22 18:00:00 NR -30.9016 176.096 main 494 444 __________P___ -1 -30.9016 176.096 2 20 153
1944075S13185 1944 21 SP MM NOT_NAMED 1944-03-22 21:00:00 NR -31.7639 176.602 main 439 396 __________P___ -1 -31.7639 176.602 2 19 153
1944075S13185 1944 21 SP MM NOT_NAMED 1944-03-23 00:00:00 NR -32.6000 177.100 main 396 __________O___ -1 -32.6000 177.100 2 19 153

デジタル台風データ・検索

IBTrACS Databaseについて

本データベースは、米国NOAAが公開する1842年以降の世界の熱帯低気圧のベストトラックデータアーカイブInternational Best Track Archive for Climate Stewardship (IBTrACS)を、ウェブで閲覧しやすい形式に変換したものです。

最終更新日:2021-12-08